Time;durP1;ratioP1;P1;durP2;ratioP2;P2;SDS_P1;SDS_P2;PMS_P1;PMS_P2;Temp;Humidity;BMP_temperature;BMP_pressure;BME280_temperature;BME280_humidity;BME280_pressure;Samples;Min_cycle;Max_cycle;Signal;HPM_P1;HPM_P2
2022/01/06 06:58:05;;;;;;;2.50;2.30;;;2.70;99.90;;;;;;5216756;24;20884;-94
2022/01/06 07:00:37;;;;;;;2.90;2.43;;;2.70;99.90;;;;;;4747292;29;20493;-95
2022/01/06 07:03:10;;;;;;;2.70;2.50;;;2.70;99.90;;;;;;4771847;29;20594;-95
2022/01/06 07:05:38;;;;;;;5.30;3.10;;;2.70;99.90;;;;;;4755934;29;21092;-96
2022/01/06 07:08:27;;;;;;;3.67;2.60;;;2.80;99.90;;;;;;4783014;29;20489;-96
2022/01/06 07:11:45;;;;;;;;;;;;;;;;;;;;;
2022/01/06 07:53:23;;;;;;;3.20;2.70;;;3.00;99.90;;;;;;5540129;24;20521;-96
2022/01/06 07:56:30;;;;;;;2.40;2.20;;;2.90;99.90;;;;;;4744740;29;20513;-95
2022/01/06 07:58:57;;;;;;;2.90;2.20;;;2.90;99.90;;;;;;4753792;29;21746;-95
2022/01/06 08:01:23;;;;;;;2.90;2.60;;;2.90;99.90;;;;;;4732022;29;20948;-95
2022/01/06 08:03:50;;;;;;;3.27;3.00;;;3.00;99.90;;;;;;4734104;29;20994;-96
2022/01/06 08:06:17;;;;;;;3.20;3.00;;;3.00;99.90;;;;;;4740720;29;21728;-96
2022/01/06 08:08:44;;;;;;;3.70;3.40;;;3.00;99.90;;;;;;4732453;29;20585;-96
2022/01/06 08:11:30;;;;;;;3.60;3.30;;;2.90;99.90;;;;;;4738217;29;20506;-96
2022/01/06 08:14:05;;;;;;;3.40;3.10;;;2.90;99.90;;;;;;4734797;29;20461;-96
2022/01/06 08:16:34;;;;;;;2.87;2.60;;;2.90;99.90;;;;;;4733348;29;20494;-96
2022/01/06 08:19:00;;;;;;;3.67;3.13;;;2.90;99.90;;;;;;4736766;29;21053;-96
2022/01/06 08:21:29;;;;;;;3.57;3.10;;;2.90;99.90;;;;;;4739115;29;20460;-96
2022/01/06 08:26:59;;;;;;;8.73;6.60;;;3.00;99.90;;;;;;4758168;29;20470;-96
2022/01/06 08:29:28;;;;;;;4.67;4.27;;;3.10;99.90;;;;;;4745075;29;20698;-96
2022/01/06 08:31:56;;;;;;;6.50;3.60;;;3.20;99.90;;;;;;4752723;29;20559;-95
2022/01/06 08:34:25;;;;;;;3.83;3.50;;;3.20;99.90;;;;;;4737997;29;20759;-96
2022/01/06 08:36:54;;;;;;;4.37;3.97;;;3.30;99.90;;;;;;4736848;29;20480;-96
2022/01/06 08:39:22;;;;;;;4.60;4.10;;;3.40;99.90;;;;;;4741142;29;20488;-95
2022/01/06 08:41:52;;;;;;;4.30;3.67;;;3.50;99.90;;;;;;4742474;29;20462;-96
2022/01/06 08:44:18;;;;;;;5.03;4.40;;;3.70;99.90;;;;;;4741317;29;20684;-96
2022/01/06 08:46:45;;;;;;;5.67;4.23;;;3.70;99.90;;;;;;4738921;29;20986;-96
2022/01/06 08:49:20;;;;;;;6.70;4.03;;;3.80;99.90;;;;;;4737563;29;20461;-96
2022/01/06 08:51:48;;;;;;;6.23;5.50;;;3.80;99.90;;;;;;4749741;29;20479;-96
2022/01/06 08:54:26;;;;;;;6.10;4.57;;;3.70;99.90;;;;;;4739343;29;20487;-95
2022/01/06 08:56:52;;;;;;;4.30;3.90;;;3.60;99.90;;;;;;4755005;29;20474;-96
2022/01/06 08:59:18;;;;;;;9.33;6.60;;;3.60;99.90;;;;;;4735247;29;20477;-96
2022/01/06 09:01:44;;;;;;;5.20;4.80;;;3.50;99.90;;;;;;4753035;29;20274;-96
2022/01/06 09:04:10;;;;;;;6.13;5.53;;;3.30;99.90;;;;;;4735735;29;20220;-96
2022/01/06 09:06:35;;;;;;;8.17;6.17;;;3.20;99.90;;;;;;4735647;29;20451;-95
2022/01/06 09:09:13;;;;;;;5.40;4.90;;;3.10;99.90;;;;;;4736787;29;20207;-96
2022/01/06 09:11:39;;;;;;;5.47;4.63;;;3.40;99.90;;;;;;4739091;29;20699;-94
2022/01/06 09:14:04;;;;;;;4.37;3.97;;;3.80;99.90;;;;;;4736844;29;20761;-95
2022/01/06 09:16:30;;;;;;;3.37;3.07;;;4.40;99.90;;;;;;4736669;29;20228;-94
2022/01/06 09:18:56;;;;;;;2.97;2.77;;;4.60;99.90;;;;;;4738999;29;20252;-95
2022/01/06 09:21:24;;;;;;;2.43;2.20;;;4.70;99.90;;;;;;4737932;29;20558;-94
2022/01/06 09:23:51;;;;;;;2.50;2.30;;;4.80;99.90;;;;;;4736551;29;20203;-93
2022/01/06 09:26:18;;;;;;;2.27;2.07;;;5.00;99.90;;;;;;4737412;29;20991;-95
2022/01/06 09:28:44;;;;;;;2.40;2.23;;;5.30;99.90;;;;;;4739670;29;20464;-94
2022/01/06 09:31:10;;;;;;;2.30;2.10;;;5.60;99.90;;;;;;4748441;29;20457;-94
2022/01/06 09:33:36;;;;;;;2.37;2.17;;;5.80;99.90;;;;;;4732495;29;21005;-93
2022/01/06 09:36:02;;;;;;;2.00;1.90;;;6.00;99.90;;;;;;4738501;29;20542;-94
2022/01/06 09:38:28;;;;;;;2.70;2.13;;;6.40;99.90;;;;;;4737556;29;20218;-95
2022/01/06 09:40:54;;;;;;;3.10;2.80;;;6.40;99.90;;;;;;4734400;29;20471;-95
2022/01/06 09:43:24;;;;;;;2.87;2.10;;;6.50;99.90;;;;;;4737234;29;20816;-95
2022/01/06 09:45:50;;;;;;;3.87;2.10;;;6.60;99.90;;;;;;4733711;29;20472;-95
2022/01/06 09:48:23;;;;;;;3.80;2.60;;;6.50;99.90;;;;;;4734173;29;20469;-95
2022/01/06 09:50:49;;;;;;;4.93;2.40;;;6.30;99.90;;;;;;4739141;29;20486;-94
2022/01/06 09:53:17;;;;;;;2.50;2.30;;;6.00;99.90;;;;;;4752117;29;20553;-93
2022/01/06 09:55:43;;;;;;;3.73;2.93;;;5.90;99.90;;;;;;4740180;29;20486;-93
2022/01/06 09:58:09;;;;;;;3.50;2.50;;;5.90;99.90;;;;;;4737622;29;20467;-94
2022/01/06 10:00:36;;;;;;;3.80;2.47;;;5.70;99.90;;;;;;4737982;29;20312;-93
2022/01/06 10:03:06;;;;;;;4.30;3.40;;;5.70;99.90;;;;;;4737587;29;20212;-94
2022/01/06 10:05:44;;;;;;;3.00;2.60;;;5.80;99.90;;;;;;4736448;29;21020;-93
2022/01/06 10:08:11;;;;;;;2.80;2.37;;;6.20;99.90;;;;;;4749804;29;22743;-94
2022/01/06 10:10:43;;;;;;;2.50;2.30;;;6.40;99.90;;;;;;4741359;29;20451;-94
2022/01/06 10:13:15;;;;;;;4.97;3.57;;;6.50;99.90;;;;;;4736958;29;20478;-94
2022/01/06 10:15:41;;;;;;;5.40;3.27;;;6.30;99.90;;;;;;4738116;29;21236;-94
2022/01/06 10:18:15;;;;;;;6.10;3.30;;;6.40;99.90;;;;;;4739799;29;20688;-95
2022/01/06 10:20:42;;;;;;;4.57;2.60;;;6.50;99.90;;;;;;4751992;29;20232;-93
2022/01/06 10:23:13;;;;;;;3.33;2.67;;;6.30;99.90;;;;;;4733648;29;20478;-94
2022/01/06 10:25:44;;;;;;;5.50;2.60;;;6.00;99.90;;;;;;4751278;29;20918;-93
2022/01/06 10:28:18;;;;;;;4.87;2.27;;;5.80;99.90;;;;;;4739202;29;20771;-94
2022/01/06 10:30:53;;;;;;;5.03;2.73;;;5.40;99.90;;;;;;4737180;29;20459;-93
2022/01/06 10:33:24;;;;;;;2.87;2.07;;;5.20;99.90;;;;;;4735583;29;20568;-93
2022/01/06 10:35:53;;;;;;;5.23;2.50;;;5.10;99.90;;;;;;4736227;29;22772;-94
2022/01/06 10:38:26;;;;;;;4.27;2.73;;;5.10;99.90;;;;;;4740367;29;20491;-94
2022/01/06 10:40:52;;;;;;;3.00;2.30;;;5.30;99.90;;;;;;4737208;29;20480;-93
2022/01/06 10:43:19;;;;;;;4.50;2.20;;;5.40;99.90;;;;;;4734065;29;20461;-95
2022/01/06 10:45:45;;;;;;;4.43;2.40;;;5.30;99.90;;;;;;4729192;29;20266;-94
2022/01/06 10:48:11;;;;;;;5.33;2.70;;;5.20;99.90;;;;;;4740564;29;20968;-94
2022/01/06 10:50:44;;;;;;;4.33;2.20;;;5.10;99.90;;;;;;4739087;29;20219;-94
2022/01/06 10:53:19;;;;;;;3.60;2.83;;;5.10;99.90;;;;;;4736912;29;20668;-95
2022/01/06 10:55:58;;;;;;;8.07;2.70;;;5.00;99.90;;;;;;4734343;29;20528;-94
2022/01/06 10:58:28;;;;;;;2.63;2.43;;;5.10;99.90;;;;;;4745374;29;20998;-95
2022/01/06 11:01:32;;;;;;;5.33;2.97;;;5.00;99.90;;;;;;4727898;29;20518;-94
2022/01/06 11:04:07;;;;;;;4.37;2.33;;;5.10;99.90;;;;;;4738115;29;20523;-95
2022/01/06 11:11:12;;;;;;;;;;;;;;;;;;;;;
2022/01/06 11:14:28;;;;;;;;;;;;;;;;;;;;;
2022/01/06 11:21:18;;;;;;;;;;;;;;;;;;;;;
2022/01/06 11:24:22;;;;;;;6.47;3.60;;;4.90;99.90;;;;;;4756045;29;20647;-96
2022/01/06 11:27:09;;;;;;;13.33;5.90;;;4.80;99.90;;;;;;4742957;29;20491;-95
2022/01/06 11:29:40;;;;;;;6.90;3.80;;;4.90;99.90;;;;;;4730364;29;20542;-92
2022/01/06 11:32:25;;;;;;;6.77;3.07;;;4.90;99.90;;;;;;4748165;29;20509;-94
2022/01/06 11:35:07;;;;;;;5.80;3.10;;;4.90;99.90;;;;;;4733301;29;20878;-93
2022/01/06 11:37:47;;;;;;;5.53;3.70;;;4.70;99.90;;;;;;4734143;29;20529;-93
2022/01/06 11:40:16;;;;;;;11.23;2.63;;;4.70;99.90;;;;;;4745853;29;20788;-94
2022/01/06 11:42:56;;;;;;;9.40;3.30;;;4.50;99.90;;;;;;4731194;29;20483;-92
2022/01/06 11:45:24;;;;;;;6.37;1.90;;;4.50;99.90;;;;;;4732291;29;20464;-91
2022/01/06 11:48:04;;;;;;;12.00;2.67;;;4.50;99.90;;;;;;4732702;29;20478;-93
2022/01/06 11:50:39;;;;;;;2.90;1.47;;;4.50;99.90;;;;;;4747858;29;20987;-92
2022/01/06 11:53:05;;;;;;;5.43;2.30;;;4.60;99.90;;;;;;4727560;29;20975;-91
2022/01/06 11:55:43;;;;;;;5.97;2.37;;;4.60;99.90;;;;;;4746337;29;21033;-93
2022/01/06 11:58:21;;;;;;;6.23;3.03;;;4.50;99.90;;;;;;4743761;29;20460;-93
2022/01/06 12:00:58;;;;;;;3.40;2.13;;;4.50;99.90;;;;;;4742711;29;20502;-96
2022/01/06 12:03:56;;;;;;;9.60;3.30;;;4.50;99.90;;;;;;4741040;29;20478;-95
2022/01/06 12:06:35;;;;;;;4.33;2.40;;;4.40;99.90;;;;;;4742184;29;20463;-96
2022/01/06 12:12:33;;;;;;;;;;;;;;;;;;;;;
2022/01/06 12:15:11;;;;;;;2.13;1.93;;;4.30;99.90;;;;;;4745669;29;20846;-95
2022/01/06 12:18:42;;;;;;;7.40;2.37;;;4.50;99.90;;;;;;4757897;29;20468;-95
2022/01/06 12:21:17;;;;;;;;;;;;;;;;;;;;;
2022/01/06 12:23:45;;;;;;;2.70;2.00;;;8.00;99.90;;;;;;4763277;29;20492;-95
2022/01/06 12:26:12;;;;;;;3.97;2.27;;;10.40;98.20;;;;;;4739241;29;20776;-95
2022/01/06 12:28:47;;;;;;;6.90;1.80;;;11.00;94.60;;;;;;4737209;29;20483;-96
2022/01/06 12:35:52;;;;;;;;;;;;;;;;;;;;;
